This is the latest recevied weather packets stored in our database for station/object N0ZJT. If no packets are shown the sender has not sent any weather packets the latest 1 day(s).
| Time | Temp. | Humidity | Pressure | Rain* | Wind** | Luminosity | Snow |
|---|---|---|---|---|---|---|---|
| 1778028382 | 11.67° C | 35% | 972 hPa | 0 mm | 1.79 m/s, 155° | - | - |
| 1778027542 | 11.67° C | 35% | 971.9 hPa | 0 mm | 2.68 m/s, 195° | - | - |
| 1778026582 | 12.22° C | 34% | 971.6 hPa | 0 mm | 2.24 m/s, 168° | - | - |
| 1778025742 | 12.22° C | 34% | 971.6 hPa | 0 mm | 2.24 m/s, 212° | - | - |
| 1778024782 | 12.78° C | 33% | 971.4 hPa | 0 mm | 1.34 m/s, 186° | - | - |
| 1778023942 | 13.33° C | 33% | 971.3 hPa | 0 mm | 2.24 m/s, 205° | - | - |
| 1778022982 | 13.89° C | 32% | 971.2 hPa | 0 mm | 0.89 m/s, 156° | - | - |
| 1778022142 | 13.89° C | 31% | 971.2 hPa | 0 mm | 2.68 m/s, 167° | - | - |
| 1778021182 | 14.44° C | 31% | 971.2 hPa | 0 mm | 1.34 m/s, 189° | - | - |
| 1778020342 | 14.44° C | 32% | 971.1 hPa | 0 mm | 1.79 m/s, 142° | - | - |
| 1778019382 | 15° C | 31% | 971.2 hPa | 0 mm | 1.79 m/s, 142° | - | - |
| 1778018542 | 15.56° C | 31% | 971.3 hPa | 0 mm | 3.13 m/s, 95° | - | - |
| 1778017582 | 15.56° C | 30% | 971.5 hPa | 0 mm | 1.34 m/s, 160° | - | - |
| 1778016742 | 16.11° C | 29% | 971.2 hPa | 0 mm | 1.79 m/s, 196° | - | - |
| 1778015782 | 15.56° C | 31% | 971.3 hPa | 0 mm | 0.89 m/s, 133° | - | - |
| 1778014942 | 16.11° C | 29% | 971.3 hPa | 0 mm | 2.68 m/s, 93° | - | - |
| 1778013982 | 16.11° C | 28% | 971.3 hPa | 0 mm | 1.79 m/s, 111° | - | - |
| 1778013142 | 17.22° C | 28% | 971.7 hPa | 0 mm | 2.68 m/s, 89° | - | - |
| 1778012182 | 17.22° C | 28% | 971.7 hPa | 0 mm | 1.79 m/s, 149° | - | - |
| 1778011342 | 17.22° C | 29% | 971.7 hPa | 0 mm | 2.68 m/s, 89° | - | - |
| 1778010382 | 16.11° C | 29% | 971.9 hPa | 0 mm | 0.89 m/s, 184° | - | - |
| 1778009542 | 16.67° C | 29% | 972 hPa | 0 mm | 1.79 m/s, 191° | - | - |
| 1778008582 | 16.67° C | 28% | 972.2 hPa | 0 mm | 1.79 m/s, 84° | - | - |
| 1778007742 | 15.56° C | 31% | 972.2 hPa | 0 mm | 1.79 m/s, 100° | - | - |
| 1778006782 | 15.56° C | 30% | 972.3 hPa | 0 mm | 1.79 m/s, 136° | - | - |
* Rain latest hour (hover to see other rain measurements)
** Current wind speed in m/s (hover to see current wind gust speed)